Time;durP1;ratioP1;P1;durP2;ratioP2;P2;SDS_P1;SDS_P2;PMS_P1;PMS_P2;Temp;Humidity;BMP_temperature;BMP_pressure;BME280_temperature;BME280_humidity;BME280_pressure;Samples;Min_cycle;Max_cycle;Signal;HPM_P1;HPM_P2
2023/07/16 00:04:35;;;;;;;2.65;2.42;;;;;;;;;;10365358;28;20045;-59
2023/07/16 00:09:36;;;;;;;3.22;2.28;;;;;;;;;;10366487;28;20033;-59
2023/07/16 00:14:36;;;;;;;3.55;2.60;;;;;;;;;;10364488;28;20044;-59
2023/07/16 00:19:37;;;;;;;3.42;2.70;;;;;;;;;;10365207;28;20030;-59
2023/07/16 00:24:37;;;;;;;4.25;2.45;;;;;;;;;;10346964;28;20026;-59
2023/07/16 00:29:38;;;;;;;2.47;2.28;;;;;;;;;;10365720;28;20030;-59
2023/07/16 00:34:38;;;;;;;3.30;2.58;;;;;;;;;;10366159;28;20018;-59
2023/07/16 00:39:39;;;;;;;3.40;2.47;;;;;;;;;;10365068;28;20381;-59
2023/07/16 00:44:40;;;;;;;3.33;2.50;;;;;;;;;;10365087;28;20061;-62
2023/07/16 00:49:41;;;;;;;2.88;2.20;;;;;;;;;;10365034;28;20037;-59
2023/07/16 00:54:42;;;;;;;2.60;2.40;;;;;;;;;;10366907;28;20478;-60
2023/07/16 00:59:43;;;;;;;3.53;2.42;;;;;;;;;;10372562;28;20022;-60
2023/07/16 01:04:43;;;;;;;3.55;2.50;;;;;;;;;;10372099;28;20497;-59
2023/07/16 01:09:45;;;;;;;2.60;2.40;;;;;;;;;;10355643;28;20109;-59
2023/07/16 01:14:46;;;;;;;4.18;2.60;;;;;;;;;;10347831;28;20049;-60
2023/07/16 01:19:46;;;;;;;2.55;2.25;;;;;;;;;;10354000;28;20064;-59
2023/07/16 01:25:36;;;;;;;2.60;2.20;;;;;;;;;;10372202;28;20026;-59
2023/07/16 01:30:41;;;;;;;3.17;2.50;;;;;;;;;;10351251;28;20516;-60
2023/07/16 01:35:42;;;;;;;2.28;2.05;;;;;;;;;;10351437;28;20073;-59
2023/07/16 01:40:43;;;;;;;2.47;2.28;;;;;;;;;;10350285;28;20122;-60
2023/07/16 01:45:44;;;;;;;3.33;2.60;;;;;;;;;;10371162;28;20141;-59
2023/07/16 01:50:45;;;;;;;3.83;2.47;;;;;;;;;;10370807;28;20018;-63
2023/07/16 01:55:46;;;;;;;2.65;2.33;;;;;;;;;;10370609;28;20033;-59
2023/07/16 02:00:48;;;;;;;2.20;1.98;;;;;;;;;;10370137;28;20038;-59
2023/07/16 02:05:48;;;;;;;2.40;2.20;;;;;;;;;;10369005;28;20144;-60
2023/07/16 02:10:49;;;;;;;2.35;2.15;;;;;;;;;;10369839;28;20147;-59
2023/07/16 02:15:50;;;;;;;2.38;2.17;;;;;;;;;;10369750;28;20033;-59
2023/07/16 02:20:50;;;;;;;2.45;2.25;;;;;;;;;;10369491;28;20033;-59
2023/07/16 02:25:51;;;;;;;5.13;2.30;;;;;;;;;;10370600;28;20034;-59
2023/07/16 02:30:52;;;;;;;2.70;2.00;;;;;;;;;;10369561;28;20041;-59
2023/07/16 02:35:52;;;;;;;2.92;2.22;;;;;;;;;;10369637;28;20026;-59
2023/07/16 02:40:53;;;;;;;2.92;2.38;;;;;;;;;;10368537;28;20513;-59
2023/07/16 02:45:53;;;;;;;2.90;2.17;;;;;;;;;;10369153;28;20037;-59
2023/07/16 02:50:54;;;;;;;2.72;2.05;;;;;;;;;;10369192;28;20246;-59
2023/07/16 02:55:54;;;;;;;3.47;2.20;;;;;;;;;;10368486;28;20022;-59
2023/07/16 03:00:55;;;;;;;3.30;2.05;;;;;;;;;;10367786;28;20030;-60
2023/07/16 03:05:56;;;;;;;3.00;2.28;;;;;;;;;;10368126;28;20030;-59
2023/07/16 03:10:57;;;;;;;3.83;2.30;;;;;;;;;;10367816;28;20045;-61
2023/07/16 03:15:58;;;;;;;2.80;2.38;;;;;;;;;;10367581;28;20076;-60
2023/07/16 03:20:59;;;;;;;2.53;2.10;;;;;;;;;;10367323;28;20036;-59
2023/07/16 03:25:59;;;;;;;2.28;2.08;;;;;;;;;;10367249;28;20026;-59
2023/07/16 03:31:00;;;;;;;3.58;2.40;;;;;;;;;;10367625;28;20037;-61
2023/07/16 03:36:00;;;;;;;3.85;2.28;;;;;;;;;;10368225;28;20030;-59
2023/07/16 03:41:02;;;;;;;2.47;2.03;;;;;;;;;;10366570;28;20034;-60
2023/07/16 03:46:02;;;;;;;2.92;2.30;;;;;;;;;;10366521;28;20038;-59
2023/07/16 03:51:03;;;;;;;2.78;2.30;;;;;;;;;;10366705;28;20038;-60
2023/07/16 03:56:04;;;;;;;2.75;2.10;;;;;;;;;;10367216;28;20029;-60
2023/07/16 04:01:04;;;;;;;2.60;2.22;;;;;;;;;;10365463;28;20343;-60
2023/07/16 04:06:09;;;;;;;2.50;2.22;;;;;;;;;;10367057;28;20080;-59
2023/07/16 04:11:09;;;;;;;2.53;2.17;;;;;;;;;;10366554;28;20064;-59
2023/07/16 04:16:10;;;;;;;2.40;2.20;;;;;;;;;;10365818;28;20425;-60
2023/07/16 04:21:10;;;;;;;3.53;2.25;;;;;;;;;;10365291;28;20032;-59
2023/07/16 04:26:11;;;;;;;3.05;1.83;;;;;;;;;;10365834;28;20042;-59
2023/07/16 04:31:11;;;;;;;2.30;2.10;;;;;;;;;;10373522;28;20034;-60
2023/07/16 04:36:12;;;;;;;2.63;2.28;;;;;;;;;;10374148;28;20025;-66
2023/07/16 04:41:13;;;;;;;3.05;2.05;;;;;;;;;;10374584;28;20531;-67
2023/07/16 04:46:13;;;;;;;2.58;2.10;;;;;;;;;;10373696;28;20389;-67
2023/07/16 04:51:14;;;;;;;2.50;2.10;;;;;;;;;;10373796;28;20053;-66
2023/07/16 04:56:15;;;;;;;1.90;1.70;;;;;;;;;;10372457;28;20037;-66
2023/07/16 05:01:16;;;;;;;2.90;2.35;;;;;;;;;;10372962;28;20044;-59
2023/07/16 05:06:17;;;;;;;3.03;2.40;;;;;;;;;;10372663;28;20041;-59
2023/07/16 05:11:17;;;;;;;3.20;2.35;;;;;;;;;;10371839;28;20034;-59
2023/07/16 05:16:18;;;;;;;2.50;2.30;;;;;;;;;;10372823;28;20018;-59
2023/07/16 05:21:18;;;;;;;4.07;2.00;;;;;;;;;;10371989;28;20033;-60
2023/07/16 05:26:19;;;;;;;3.97;2.20;;;;;;;;;;10372114;28;20034;-59
2023/07/16 05:31:19;;;;;;;2.40;2.20;;;;;;;;;;10372010;28;20076;-59
2023/07/16 05:36:20;;;;;;;2.35;2.15;;;;;;;;;;10372091;28;20022;-63
2023/07/16 05:41:21;;;;;;;2.03;1.83;;;;;;;;;;10371549;28;20044;-60
2023/07/16 05:46:21;;;;;;;3.28;2.05;;;;;;;;;;10371036;28;20063;-60
2023/07/16 05:51:22;;;;;;;2.58;2.30;;;;;;;;;;10371127;28;20034;-59
2023/07/16 05:56:22;;;;;;;3.30;2.42;;;;;;;;;;10370607;28;20077;-62
2023/07/16 06:01:23;;;;;;;3.03;2.40;;;;;;;;;;10370301;28;20398;-60
2023/07/16 06:06:24;;;;;;;2.35;1.98;;;;;;;;;;10371366;28;20033;-59
2023/07/16 06:11:24;;;;;;;2.80;2.08;;;;;;;;;;10370025;28;20296;-59
2023/07/16 06:16:25;;;;;;;2.13;1.90;;;;;;;;;;10370573;28;20077;-60
2023/07/16 06:21:25;;;;;;;3.17;2.47;;;;;;;;;;10370060;28;20152;-59
2023/07/16 06:26:26;;;;;;;1.90;1.80;;;;;;;;;;10369530;28;20026;-59
2023/07/16 06:31:26;;;;;;;2.63;2.20;;;;;;;;;;10369814;28;20041;-59
2023/07/16 06:36:27;;;;;;;4.38;2.10;;;;;;;;;;10370146;28;20033;-59
2023/07/16 06:41:30;;;;;;;3.03;2.15;;;;;;;;;;10368973;28;20405;-60
2023/07/16 06:46:30;;;;;;;2.83;2.10;;;;;;;;;;10368609;28;20034;-59
2023/07/16 06:51:32;;;;;;;2.45;2.25;;;;;;;;;;10367392;28;20033;-61
2023/07/16 06:56:32;;;;;;;3.97;2.83;;;;;;;;;;10368368;28;20030;-60
2023/07/16 07:01:33;;;;;;;4.22;2.20;;;;;;;;;;10368217;28;20073;-59
2023/07/16 07:06:33;;;;;;;2.92;2.10;;;;;;;;;;10368204;28;20030;-59
2023/07/16 07:11:34;;;;;;;4.00;2.05;;;;;;;;;;10368110;28;20041;-59
2023/07/16 07:16:34;;;;;;;2.78;2.35;;;;;;;;;;10368251;28;20469;-59
2023/07/16 07:21:35;;;;;;;2.90;2.00;;;;;;;;;;10367414;28;20033;-59
2023/07/16 07:26:36;;;;;;;2.85;2.33;;;;;;;;;;10366983;28;20173;-59
2023/07/16 07:31:36;;;;;;;2.20;2.00;;;;;;;;;;10366862;28;20037;-59
2023/07/16 07:36:37;;;;;;;3.47;2.30;;;;;;;;;;10367113;28;20034;-60
2023/07/16 07:41:38;;;;;;;3.58;2.47;;;;;;;;;;10367186;28;20018;-60
2023/07/16 07:46:38;;;;;;;3.22;2.35;;;;;;;;;;10366754;28;20386;-59
2023/07/16 07:51:39;;;;;;;3.58;2.13;;;;;;;;;;10367137;28;20030;-59
2023/07/16 07:56:39;;;;;;;2.17;1.98;;;;;;;;;;10366420;28;20461;-59
2023/07/16 08:01:40;;;;;;;2.58;2.17;;;;;;;;;;10365163;28;20048;-60
2023/07/16 08:06:40;;;;;;;2.25;2.05;;;;;;;;;;10365142;28;20022;-60
2023/07/16 08:11:41;;;;;;;3.03;2.30;;;;;;;;;;10365922;28;20041;-59
2023/07/16 08:16:42;;;;;;;3.13;2.22;;;;;;;;;;10365688;28;20397;-61
2023/07/16 08:21:43;;;;;;;7.53;3.03;;;;;;;;;;10366264;28;20393;-59
2023/07/16 08:26:44;;;;;;;4.55;2.50;;;;;;;;;;10365584;28;20601;-60
2023/07/16 08:31:45;;;;;;;5.95;2.83;;;;;;;;;;10365155;28;20026;-59
2023/07/16 08:36:45;;;;;;;4.88;2.53;;;;;;;;;;10365197;28;20041;-60
2023/07/16 08:41:46;;;;;;;3.55;2.40;;;;;;;;;;10365513;28;20022;-59
2023/07/16 08:46:48;;;;;;;3.58;2.65;;;;;;;;;;10353807;28;20049;-59
2023/07/16 08:51:49;;;;;;;4.47;2.30;;;;;;;;;;10364798;28;20022;-59
2023/07/16 08:56:51;;;;;;;2.22;2.03;;;;;;;;;;10363897;28;20037;-60
2023/07/16 09:01:52;;;;;;;3.45;2.20;;;;;;;;;;10335477;28;20053;-61
2023/07/16 09:06:53;;;;;;;5.68;2.72;;;;;;;;;;10364507;28;20480;-59
2023/07/16 09:11:54;;;;;;;3.38;2.30;;;;;;;;;;10364700;28;20030;-59
2023/07/16 09:16:54;;;;;;;6.05;3.05;;;;;;;;;;10369815;28;20026;-59
2023/07/16 09:21:55;;;;;;;4.45;2.67;;;;;;;;;;10372067;28;20026;-60
2023/07/16 09:26:56;;;;;;;5.15;2.47;;;;;;;;;;10372144;28;20041;-59
2023/07/16 09:32:00;;;;;;;3.10;2.50;;;;;;;;;;10371280;28;20029;-59
2023/07/16 09:37:01;;;;;;;3.88;2.63;;;;;;;;;;10371749;28;20262;-59
2023/07/16 09:42:02;;;;;;;4.13;2.60;;;;;;;;;;10371805;28;20026;-60
2023/07/16 09:47:03;;;;;;;6.25;3.05;;;;;;;;;;10370774;28;20123;-60
2023/07/16 09:52:05;;;;;;;2.80;2.60;;;;;;;;;;10370688;28;20041;-59
2023/07/16 09:57:06;;;;;;;3.08;2.53;;;;;;;;;;10344975;28;20393;-59
2023/07/16 10:02:07;;;;;;;3.72;2.80;;;;;;;;;;10353119;28;20520;-60
2023/07/16 10:07:21;;;;;;;3.72;2.67;;;;;;;;;;10353062;28;20091;-60
2023/07/16 10:12:24;;;;;;;2.55;2.13;;;;;;;;;;10358924;28;20026;-59
2023/07/16 10:17:26;;;;;;;3.03;2.55;;;;;;;;;;10358376;28;20037;-59
2023/07/16 10:22:40;;;;;;;3.53;2.70;;;;;;;;;;10370344;28;20033;-59
2023/07/16 10:27:40;;;;;;;3.05;2.75;;;;;;;;;;10357649;28;20425;-59
2023/07/16 10:32:42;;;;;;;5.47;3.00;;;;;;;;;;10370003;28;20040;-61
2023/07/16 10:37:42;;;;;;;5.03;2.50;;;;;;;;;;10368968;28;20026;-60
2023/07/16 10:42:46;;;;;;;3.75;2.40;;;;;;;;;;10369556;28;20445;-60
2023/07/16 10:47:55;;;;;;;3.42;2.47;;;;;;;;;;10368880;28;20379;-60
2023/07/16 10:52:56;;;;;;;2.53;2.33;;;;;;;;;;10368532;28;20052;-60
2023/07/16 10:57:57;;;;;;;6.22;2.97;;;;;;;;;;10368131;28;20034;-60
2023/07/16 11:02:58;;;;;;;3.35;2.63;;;;;;;;;;10367137;28;20493;-59
2023/07/16 11:07:58;;;;;;;5.07;2.85;;;;;;;;;;10345726;28;20065;-59
2023/07/16 11:13:00;;;;;;;5.03;2.85;;;;;;;;;;10368408;28;20477;-59
2023/07/16 11:18:02;;;;;;;4.88;2.17;;;;;;;;;;10367607;28;20120;-59
2023/07/16 11:23:04;;;;;;;4.22;2.90;;;;;;;;;;10367061;28;20022;-59
2023/07/16 11:28:05;;;;;;;3.90;2.85;;;;;;;;;;10367590;28;20034;-60
2023/07/16 11:33:13;;;;;;;3.60;2.53;;;;;;;;;;10368324;28;20436;-64
2023/07/16 11:38:13;;;;;;;4.25;2.67;;;;;;;;;;10367139;28;20441;-60
2023/07/16 11:43:15;;;;;;;3.45;2.50;;;;;;;;;;10367439;28;20022;-59
2023/07/16 11:48:15;;;;;;;4.45;2.70;;;;;;;;;;10367950;28;20413;-59
2023/07/16 11:53:17;;;;;;;4.05;2.50;;;;;;;;;;10366625;28;20034;-59
2023/07/16 11:58:17;;;;;;;3.28;2.63;;;;;;;;;;10366840;28;20025;-60
2023/07/16 12:03:18;;;;;;;9.98;3.25;;;;;;;;;;10366023;28;20501;-60
2023/07/16 12:08:18;;;;;;;4.13;2.60;;;;;;;;;;10366685;28;20174;-59
2023/07/16 12:13:19;;;;;;;3.00;2.70;;;;;;;;;;10367078;28;20026;-60
2023/07/16 12:18:19;;;;;;;4.60;3.28;;;;;;;;;;10366080;28;20108;-59
2023/07/16 12:23:20;;;;;;;6.60;2.70;;;;;;;;;;10365594;28;20030;-59
2023/07/16 12:28:21;;;;;;;3.30;2.75;;;;;;;;;;10365573;28;20029;-59
2023/07/16 12:33:21;;;;;;;3.80;2.88;;;;;;;;;;10365768;28;20052;-59
2023/07/16 12:38:22;;;;;;;4.45;3.00;;;;;;;;;;10365810;28;20025;-59
2023/07/16 12:43:23;;;;;;;3.75;2.50;;;;;;;;;;10365981;28;20052;-60
2023/07/16 12:48:23;;;;;;;2.90;2.60;;;;;;;;;;10366067;28;20026;-59
2023/07/16 12:53:25;;;;;;;3.95;2.70;;;;;;;;;;10373727;28;20277;-59
2023/07/16 12:58:25;;;;;;;3.75;2.88;;;;;;;;;;10373715;28;20109;-59
2023/07/16 13:03:26;;;;;;;3.15;2.80;;;;;;;;;;10373119;28;20038;-59
2023/07/16 13:08:26;;;;;;;3.40;2.88;;;;;;;;;;10373588;28;20100;-59
2023/07/16 13:13:27;;;;;;;4.35;2.88;;;;;;;;;;10373744;28;20041;-59
2023/07/16 13:18:28;;;;;;;3.92;2.80;;;;;;;;;;10372577;28;20076;-60
2023/07/16 13:23:28;;;;;;;3.42;2.85;;;;;;;;;;10372645;28;20072;-61
2023/07/16 13:28:29;;;;;;;3.33;2.60;;;;;;;;;;10372476;28;20436;-59
2023/07/16 13:33:30;;;;;;;3.45;2.78;;;;;;;;;;10371996;28;20029;-59
2023/07/16 13:38:31;;;;;;;3.80;3.00;;;;;;;;;;10372506;28;20034;-60
2023/07/16 13:43:32;;;;;;;4.82;2.65;;;;;;;;;;10371850;28;20033;-59
2023/07/16 13:48:32;;;;;;;2.70;2.50;;;;;;;;;;10371773;28;20033;-59
2023/07/16 13:53:33;;;;;;;4.38;2.90;;;;;;;;;;10371597;28;20026;-59
2023/07/16 13:58:34;;;;;;;3.10;2.80;;;;;;;;;;10370912;28;20021;-59
2023/07/16 14:03:34;;;;;;;4.85;2.60;;;;;;;;;;10369450;28;20049;-64
2023/07/16 14:08:35;;;;;;;3.22;2.60;;;;;;;;;;10370830;28;20088;-59
2023/07/16 14:13:36;;;;;;;4.35;3.05;;;;;;;;;;10370991;28;20034;-60
2023/07/16 14:18:37;;;;;;;4.40;2.83;;;;;;;;;;10370832;28;20037;-65
2023/07/16 14:23:37;;;;;;;4.50;3.05;;;;;;;;;;10370044;28;20492;-59
2023/07/16 14:28:38;;;;;;;4.25;2.97;;;;;;;;;;10369854;28;20034;-60
2023/07/16 14:33:39;;;;;;;3.22;2.92;;;;;;;;;;10369903;28;20025;-60
2023/07/16 14:38:39;;;;;;;5.45;3.40;;;;;;;;;;10369405;28;20029;-59
2023/07/16 14:43:40;;;;;;;4.95;3.60;;;;;;;;;;10369335;28;20057;-59
2023/07/16 14:48:45;;;;;;;3.80;3.00;;;;;;;;;;10368883;28;20033;-65
2023/07/16 14:53:46;;;;;;;4.88;3.17;;;;;;;;;;10369253;28;20026;-59
2023/07/16 14:58:46;;;;;;;4.95;3.20;;;;;;;;;;10368604;28;20524;-60
2023/07/16 15:03:47;;;;;;;8.02;3.40;;;;;;;;;;10368794;28;20049;-60
2023/07/16 15:08:48;;;;;;;5.47;2.95;;;;;;;;;;10368957;28;20034;-59
2023/07/16 15:13:48;;;;;;;3.00;2.65;;;;;;;;;;10367940;28;20037;-59
2023/07/16 15:18:49;;;;;;;7.88;3.55;;;;;;;;;;10368264;28;20026;-60
2023/07/16 15:23:50;;;;;;;4.60;3.20;;;;;;;;;;10367892;28;20029;-59
2023/07/16 15:28:50;;;;;;;3.92;3.03;;;;;;;;;;10368034;28;20033;-59
2023/07/16 15:33:51;;;;;;;6.63;3.40;;;;;;;;;;10367536;28;20465;-60
2023/07/16 15:38:51;;;;;;;4.55;3.50;;;;;;;;;;10367799;28;20593;-59
2023/07/16 15:43:52;;;;;;;4.18;3.17;;;;;;;;;;10367153;28;20485;-59
2023/07/16 15:48:53;;;;;;;4.50;3.15;;;;;;;;;;10366727;28;20036;-59
2023/07/16 15:53:54;;;;;;;6.03;3.17;;;;;;;;;;10367186;28;20030;-60
2023/07/16 15:58:55;;;;;;;3.15;2.85;;;;;;;;;;10366459;28;20477;-59
2023/07/16 16:03:55;;;;;;;5.97;3.17;;;;;;;;;;10366106;28;20049;-59
2023/07/16 16:08:56;;;;;;;3.83;2.95;;;;;;;;;;10366888;28;20088;-59
2023/07/16 16:13:56;;;;;;;4.43;3.17;;;;;;;;;;10366342;28;20034;-59
2023/07/16 16:18:57;;;;;;;6.03;3.20;;;;;;;;;;10366109;28;20108;-59
2023/07/16 16:23:58;;;;;;;4.38;3.28;;;;;;;;;;10365153;28;20038;-59
2023/07/16 16:28:58;;;;;;;3.45;2.92;;;;;;;;;;10366035;28;20026;-59
2023/07/16 16:33:59;;;;;;;3.55;3.03;;;;;;;;;;10366802;28;20029;-60
2023/07/16 16:38:59;;;;;;;5.57;3.40;;;;;;;;;;10366099;28;20036;-59
2023/07/16 16:44:00;;;;;;;3.85;3.10;;;;;;;;;;10365036;28;20496;-59
2023/07/16 16:49:01;;;;;;;3.90;3.45;;;;;;;;;;10365430;28;20366;-59
2023/07/16 16:54:02;;;;;;;4.45;2.90;;;;;;;;;;10365579;28;20108;-59
2023/07/16 16:59:03;;;;;;;5.22;3.00;;;;;;;;;;10365379;28;20033;-59
2023/07/16 17:04:04;;;;;;;4.15;3.08;;;;;;;;;;10365100;28;20050;-59
2023/07/16 17:09:05;;;;;;;3.92;3.47;;;;;;;;;;10365478;28;20022;-59
2023/07/16 17:14:05;;;;;;;4.90;3.10;;;;;;;;;;10365150;28;20026;-59
2023/07/16 17:19:06;;;;;;;4.93;3.20;;;;;;;;;;10365050;28;20033;-59
2023/07/16 17:24:06;;;;;;;4.57;3.30;;;;;;;;;;10364671;28;20037;-60
2023/07/16 17:29:08;;;;;;;4.68;3.38;;;;;;;;;;10364711;28;20042;-59
2023/07/16 17:34:08;;;;;;;4.00;3.20;;;;;;;;;;10364945;28;20034;-59
2023/07/16 17:39:09;;;;;;;4.55;3.13;;;;;;;;;;10372040;28;20037;-59
2023/07/16 17:44:09;;;;;;;5.18;3.40;;;;;;;;;;10370139;28;20030;-59
2023/07/16 17:49:10;;;;;;;7.32;3.50;;;;;;;;;;10359181;28;20021;-59
2023/07/16 17:54:11;;;;;;;3.85;3.05;;;;;;;;;;10370816;28;20036;-59
2023/07/16 17:59:11;;;;;;;4.47;3.30;;;;;;;;;;10365423;28;20033;-59
2023/07/16 18:04:13;;;;;;;4.70;3.45;;;;;;;;;;10333205;28;20101;-59
2023/07/16 18:09:14;;;;;;;4.88;3.55;;;;;;;;;;10330532;28;20373;-59
2023/07/16 18:14:15;;;;;;;6.55;3.63;;;;;;;;;;10304443;28;20109;-61
2023/07/16 18:19:15;;;;;;;3.97;3.20;;;;;;;;;;10323229;28;20031;-59
2023/07/16 18:24:16;;;;;;;5.47;3.40;;;;;;;;;;10326159;28;20497;-60
2023/07/16 18:29:17;;;;;;;3.53;2.85;;;;;;;;;;10324979;28;20026;-60
2023/07/16 18:34:17;;;;;;;6.68;3.80;;;;;;;;;;10327082;28;20261;-60
2023/07/16 18:39:18;;;;;;;3.83;3.33;;;;;;;;;;10311519;28;20096;-59
2023/07/16 18:44:18;;;;;;;4.53;3.60;;;;;;;;;;10319434;28;20030;-59
2023/07/16 18:49:19;;;;;;;4.93;3.20;;;;;;;;;;10326806;28;20462;-59
2023/07/16 18:54:19;;;;;;;7.05;3.75;;;;;;;;;;10327527;28;20525;-63
2023/07/16 18:59:20;;;;;;;6.57;3.67;;;;;;;;;;10326720;28;20490;-65
2023/07/16 19:04:20;;;;;;;6.10;3.45;;;;;;;;;;10326281;28;20047;-59
2023/07/16 19:09:21;;;;;;;7.57;4.65;;;;;;;;;;10327112;28;20027;-64
2023/07/16 19:14:22;;;;;;;7.97;3.60;;;;;;;;;;10313642;28;20033;-59
2023/07/16 19:19:28;;;;;;;7.90;3.35;;;;;;;;;;10317911;28;20039;-59
2023/07/16 19:24:29;;;;;;;5.63;3.50;;;;;;;;;;10327836;28;20033;-59
2023/07/16 19:29:29;;;;;;;6.97;3.28;;;;;;;;;;10321695;28;20517;-61
2023/07/16 19:34:30;;;;;;;9.05;3.58;;;;;;;;;;10330004;28;20474;-62
2023/07/16 19:39:31;;;;;;;3.20;2.65;;;;;;;;;;10320715;28;20521;-60
2023/07/16 19:44:32;;;;;;;3.85;2.80;;;;;;;;;;10317467;28;20026;-60
2023/07/16 19:49:33;;;;;;;6.38;3.15;;;;;;;;;;10315838;28;20117;-62
2023/07/16 19:54:34;;;;;;;7.20;3.35;;;;;;;;;;10320204;28;20019;-60
2023/07/16 19:59:34;;;;;;;3.55;2.72;;;;;;;;;;10318886;28;20045;-60
2023/07/16 20:04:35;;;;;;;5.95;3.20;;;;;;;;;;10313400;28;20434;-65
2023/07/16 20:09:35;;;;;;;8.50;3.10;;;;;;;;;;10316926;28;20433;-66
2023/07/16 20:14:36;;;;;;;3.95;2.72;;;;;;;;;;10324201;28;20378;-65
2023/07/16 20:19:37;;;;;;;6.70;3.17;;;;;;;;;;10302880;28;20125;-65
2023/07/16 20:24:37;;;;;;;4.78;2.50;;;;;;;;;;10316912;28;20133;-64
2023/07/16 20:29:38;;;;;;;5.22;2.40;;;;;;;;;;10317764;28;20030;-66
2023/07/16 20:34:38;;;;;;;5.72;2.90;;;;;;;;;;10316404;28;20026;-64
2023/07/16 20:39:39;;;;;;;6.10;3.08;;;;;;;;;;10316917;28;20026;-63
2023/07/16 20:45:19;;;;;;;5.07;2.70;;;;;;;;;;10307421;28;20045;-67
2023/07/16 20:50:24;;;;;;;3.38;2.35;;;;;;;;;;10321456;28;20037;-63
2023/07/16 20:55:27;;;;;;;3.38;2.50;;;;;;;;;;10313159;28;20126;-65
2023/07/16 21:00:31;;;;;;;4.65;2.50;;;;;;;;;;10321186;28;20498;-60
2023/07/16 21:05:33;;;;;;;2.85;2.60;;;;;;;;;;10356618;28;20053;-64
2023/07/16 21:10:34;;;;;;;3.88;2.38;;;;;;;;;;10359745;28;20038;-64
2023/07/16 21:15:35;;;;;;;3.38;2.25;;;;;;;;;;10352038;28;20556;-64
2023/07/16 21:20:39;;;;;;;3.38;2.42;;;;;;;;;;10367818;28;20030;-65
2023/07/16 21:25:43;;;;;;;10.27;2.60;;;;;;;;;;10360289;28;20045;-64
2023/07/16 21:30:44;;;;;;;3.88;2.83;;;;;;;;;;10369082;28;20038;-66
2023/07/16 21:35:44;;;;;;;2.45;1.98;;;;;;;;;;10359095;28;20029;-65
2023/07/16 21:40:45;;;;;;;4.05;2.50;;;;;;;;;;10353479;28;20034;-64
2023/07/16 21:45:45;;;;;;;4.65;2.60;;;;;;;;;;10363810;28;20041;-68
2023/07/16 21:50:46;;;;;;;3.20;2.60;;;;;;;;;;10366513;28;20277;-65
2023/07/16 21:55:47;;;;;;;4.57;2.70;;;;;;;;;;10356165;28;20493;-66
2023/07/16 22:00:47;;;;;;;4.07;2.20;;;;;;;;;;10363994;28;20034;-59
2023/07/16 22:05:48;;;;;;;4.38;2.50;;;;;;;;;;10332097;28;20046;-66
2023/07/16 22:10:49;;;;;;;5.30;2.38;;;;;;;;;;10326863;28;20029;-66
2023/07/16 22:15:49;;;;;;;4.75;2.40;;;;;;;;;;10328554;28;20031;-65
2023/07/16 22:20:50;;;;;;;3.67;2.40;;;;;;;;;;10324499;28;20092;-66
2023/07/16 22:25:51;;;;;;;3.10;2.28;;;;;;;;;;10314957;28;20045;-66
2023/07/16 22:30:51;;;;;;;5.05;2.50;;;;;;;;;;10326686;28;20025;-66
2023/07/16 22:35:52;;;;;;;3.20;2.38;;;;;;;;;;10325780;28;20030;-65
2023/07/16 22:40:53;;;;;;;4.78;2.63;;;;;;;;;;10326815;28;20506;-65
2023/07/16 22:45:53;;;;;;;3.80;2.45;;;;;;;;;;10326380;28;20104;-65
2023/07/16 22:50:54;;;;;;;3.35;2.30;;;;;;;;;;10328155;28;20034;-65
2023/07/16 22:55:54;;;;;;;2.83;2.35;;;;;;;;;;10324488;28;20042;-66
2023/07/16 23:00:55;;;;;;;3.60;2.40;;;;;;;;;;10320005;28;20041;-67
2023/07/16 23:05:56;;;;;;;4.65;2.10;;;;;;;;;;10313220;28;20046;-67
2023/07/16 23:10:59;;;;;;;2.50;1.95;;;;;;;;;;10316869;28;20096;-67
2023/07/16 23:16:00;;;;;;;3.28;2.17;;;;;;;;;;10333255;28;20034;-68
2023/07/16 23:21:00;;;;;;;2.20;2.00;;;;;;;;;;10326542;28;20034;-68
2023/07/16 23:26:03;;;;;;;5.70;2.95;;;;;;;;;;10326142;28;20027;-67
2023/07/16 23:31:04;;;;;;;2.55;2.05;;;;;;;;;;10325929;28;20409;-68
2023/07/16 23:36:04;;;;;;;3.08;2.03;;;;;;;;;;10324559;28;20026;-68
2023/07/16 23:41:05;;;;;;;2.78;2.10;;;;;;;;;;10324501;28;20038;-65
2023/07/16 23:46:06;;;;;;;5.45;2.38;;;;;;;;;;10323972;28;20026;-65
2023/07/16 23:51:06;;;;;;;3.72;2.35;;;;;;;;;;10324307;28;20034;-66
2023/07/16 23:56:07;;;;;;;3.58;2.45;;;;;;;;;;10325036;28;20018;-66
